Terminal Aerodrome Forecast
Issued by NWS

Home | Current Version | Previous Version | Text Only | Print | Product List | Glossary On
Versions: 1 2 3 4 5 6 7 8 9 10 11 12
000
FTUS45 KRIW 260500
TAFCPR
TAF
KCPR 260527Z 2606/2706 04009KT 2SM -SN BKN024
     FM260800 04009KT 5SM -SN SCT015 OVC035
     FM260900 04009KT P6SM VCSH OVC035
     FM261800 36007KT P6SM SCT040
     FM270300 VRB05KT P6SM VCSH BKN040=

USA.gov is the U.S. government's official web portal to all federal, state and local government web resources and services.